Thunder radar more information blitzortung!


Radar de pluja more information rain snow radar


Visita la nostra xarxa de llocs de meteo:

Template documentation
and downloads

And another site



No particular awareness of the weather is required.    There are no Weather-warnings

Pagina Historial Weather Underground text

Diari Resum Agost 28, 2017 Unitats:  Imperial    Mètric   Tant
« Previous Dia
SegĂźent Dia »
Diari Setmana Mensual Anual Personalitzada
  Maxima: Minima: Media:
Temperatura: 98.8 °F 68.7 °F 83.7 °F
Punt de rosada: 66.9 °F 53.2 °F 63.9 °F
Humitat: 76 % 23 % 53 %
Wind Speed: 18.4 mph 0 mph 4 mph
RĂ fegues de vent: 18.4 mph - -
Vent:- - SSE
Pression baro: 29.9 in 29.8 in -
Precipitacions: 0 in    
Historical Graphs
 
 
Dades de taula per Agost 28, 2017
Temps Temperatura Punt de rosada Pression baro Vent Wind Speed RĂ fegues de vent Humitat Rainfall Rate (Hourly)
00:01 75.4 °F 63.1 °F 29.9 in SW 2.6 mph 2.6 mph 66 % 0 in
00:06 75.2 °F 63.1 °F 29.9 in SW 2.3 mph 2.3 mph 66 % 0 in
00:11 75.2 °F 63.5 °F 29.9 in WSW 1.4 mph 1.4 mph 67 % 0 in
02:25 70.3 °F 60.4 °F 29.9 in Calm     71 % 0 in
02:35 70.2 °F 60.3 °F 29.9 in Calm   1 mph 71 % 0 in
02:45 70 °F 60.4 °F 29.9 in Calm     72 % 0 in
02:55 70 °F 60.4 °F 29.9 in Calm     72 % 0 in
03:05 69.8 °F 60.4 °F 29.9 in Calm     72 % 0 in
03:15 69.4 °F 60.4 °F 29.9 in Calm     73 % 0 in
03:25 69.3 °F 60.3 °F 29.9 in Calm     73 % 0 in
03:35 68.7 °F 59.7 °F 29.9 in WSW 1 mph 2 mph 73 % 0 in
03:45 68.7 °F 60.1 °F 29.9 in Calm   2 mph 74 % 0 in
03:55 69.1 °F 60.4 °F 29.9 in Calm   1 mph 74 % 0 in
04:05 69.6 °F 61 °F 29.9 in North 2 mph 2 mph 74 % 0 in
04:15 70.2 °F 61.5 °F 29.9 in NE 1 mph 3 mph 74 % 0 in
09:17 75.4 °F 62.8 °F 29.9 in ENE 1.4 mph 1.4 mph 65 % 0 in
09:22 75.7 °F 63.1 °F 29.9 in ENE 1.2 mph   65 % 0 in
09:27 76.1 °F 63 °F 29.9 in North 2.3 mph 2.3 mph 64 % 0 in
09:32 76.8 °F 63.7 °F 29.9 in NE 2.4 mph 2.4 mph 64 % 0 in
09:37 77 °F 63 °F 29.9 in ENE 2.4 mph 2.4 mph 62 % 0 in
09:42 77.4 °F 63.3 °F 29.9 in NE 2.3 mph 2.3 mph 62 % 0 in
09:47 78.1 °F 64 °F 29.9 in West 3.5 mph 3.5 mph 62 % 0 in
09:52 78.1 °F 63.5 °F 29.9 in SW 2.3 mph   61 % 0 in
09:57 78.6 °F 64 °F 29.9 in NNE 1.2 mph   61 % 0 in
10:02 78.8 °F 64.2 °F 29.9 in NE 1.4 mph 1.4 mph 61 % 0 in
10:07 79 °F 63.9 °F 29.9 in SW 3.5 mph   60 % 0 in
10:12 79.7 °F 64.6 °F 29.9 in SW 2.3 mph 2.3 mph 60 % 0 in
10:17 80.2 °F 65.1 °F 29.9 in Calm     60 % 0 in
10:22 81.1 °F 64.9 °F 29.9 in ESE 2.3 mph 2.3 mph 58 % 0 in
10:27 81.3 °F 64.6 °F 29.9 in SSW 2.3 mph 2.3 mph 57 % 0 in
10:32 81.7 °F 65.5 °F 29.9 in NNE 2.3 mph 2.3 mph 58 % 0 in
10:37 82 °F 65.3 °F 29.9 in SW 4.6 mph 4.6 mph 57 % 0 in
10:42 82.8 °F 66 °F 29.9 in SW 2.3 mph 2.3 mph 57 % 0 in
10:47 82.6 °F 65.3 °F 29.9 in ENE 2.3 mph 2.3 mph 56 % 0 in
10:52 82 °F 64.8 °F 29.9 in WNW 3.5 mph 3.5 mph 56 % 0 in
10:57 82.6 °F 64.8 °F 29.9 in ESE 2.3 mph 2.4 mph 55 % 0 in
11:02 83.1 °F 65.8 °F 29.9 in NNE 3.5 mph 3.5 mph 56 % 0 in
11:07 83.3 °F 65.5 °F 29.9 in ENE 3.1 mph 3.1 mph 55 % 0 in
11:12 83.3 °F 64.9 °F 29.9 in ESE 3.5 mph 3.5 mph 54 % 0 in
11:17 83.8 °F 65.5 °F 29.9 in ESE 2.3 mph 2.3 mph 54 % 0 in
11:22 84.6 °F 65.5 °F 29.9 in West 4.3 mph 4.3 mph 53 % 0 in
11:27 84.9 °F 65.8 °F 29.9 in ESE 2.3 mph 2.3 mph 53 % 0 in
11:32 85.8 °F 66.2 °F 29.9 in WSW 3.5 mph 3.5 mph 52 % 0 in
11:37 86.5 °F 66.4 °F 29.9 in NW 2 mph   51 % 0 in
11:42 86.7 °F 65.8 °F 29.9 in ENE 3.5 mph 3.5 mph 50 % 0 in
11:47 86.9 °F 66 °F 29.9 in NNE 4.6 mph 4.6 mph 50 % 0 in
11:52 86.2 °F 65.5 °F 29.9 in ENE 4.6 mph 4.6 mph 50 % 0 in
11:57 86.2 °F 65.5 °F 29.9 in East 3.5 mph 3.5 mph 50 % 0 in
12:02 87.8 °F 66.4 °F 29.9 in ENE 4.3 mph 4.3 mph 49 % 0 in
12:07 87.8 °F 65.7 °F 29.9 in NNE 5.4 mph 5.4 mph 48 % 0 in
12:12 87.3 °F 64.6 °F 29.9 in ESE 4.6 mph 4.6 mph 47 % 0 in
12:17 87.8 °F 65.1 °F 29.9 in NE 8.1 mph 8.1 mph 47 % 0 in
12:22 87.6 °F 64.2 °F 29.9 in NNE 5.8 mph 5.8 mph 46 % 0 in
12:27 88.2 °F 64 °F 29.9 in NNE 5.8 mph 5.8 mph 45 % 0 in
12:32 88.9 °F 64 °F 29.9 in SE 4.6 mph 4.6 mph 44 % 0 in
12:37 90.1 °F 65.8 °F 29.9 in NW 2.3 mph 2.3 mph 45 % 0 in
12:42 91 °F 66 °F 29.9 in ESE 2.3 mph 2.4 mph 44 % 0 in
12:47 91.2 °F 66.4 °F 29.9 in NNE 2.9 mph 2.9 mph 44 % 0 in
12:57 91.8 °F 65.5 °F 29.9 in SE 3.5 mph 3.5 mph 42 % 0 in
13:02 92.5 °F 66 °F 29.9 in WNW 2.4 mph 2.4 mph 42 % 0 in
13:07 92.5 °F 66 °F 29.9 in NW 3.5 mph 3.5 mph 42 % 0 in
13:12 92.8 °F 64.9 °F 29.9 in East 4.6 mph 4.6 mph 40 % 0 in
13:18 92.7 °F 64 °F 29.9 in South 4 mph 4 mph 39 % 0 in
13:22 94.3 °F 65.5 °F 29.9 in SE 2.6 mph 2.6 mph 39 % 0 in
13:28 95 °F 64.6 °F 29.9 in ENE 2.3 mph 2.3 mph 37 % 0 in
13:33 94.1 °F 63.1 °F 29.9 in ESE 3.5 mph 3.5 mph 36 % 0 in
13:38 95.4 °F 64.9 °F 29.9 in SW 3.5 mph 3.5 mph 37 % 0 in
13:43 94.6 °F 61.2 °F 29.9 in NNE 4.6 mph 4.6 mph 33 % 0 in
13:48 94.5 °F 61.9 °F 29.9 in SE 4.6 mph 4.6 mph 34 % 0 in
13:53 95.5 °F 58.3 °F 29.9 in ESE 4.6 mph 4.6 mph 29 % 0 in
13:58 96.3 °F 60.6 °F 29.9 in WSW 3.5 mph 3.5 mph 31 % 0 in
14:03 96.6 °F 56.1 °F 29.9 in ESE 4.6 mph 4.6 mph 26 % 0 in
14:08 97.5 °F 57.9 °F 29.9 in SSE 4.3 mph 4.3 mph 27 % 0 in
14:13 98.2 °F 58.5 °F 29.9 in South 3.5 mph 3.5 mph 27 % 0 in
14:18 98.8 °F 59 °F 29.9 in SW 4.6 mph 4.6 mph 27 % 0 in
14:23 97.9 °F 56.1 °F 29.9 in South 3.6 mph 3.8 mph 25 % 0 in
14:28 97 °F 54.1 °F 29.9 in East 5.8 mph 5.8 mph 24 % 0 in
14:33 97.3 °F 53.2 °F 29.9 in East 4.6 mph 4.6 mph 23 % 0 in
14:38 97.9 °F 55 °F 29.9 in ENE 4.3 mph 4.3 mph 24 % 0 in
14:48 96.1 °F 56.7 °F 29.9 in East 5.8 mph 5.8 mph 27 % 0 in
14:53 96.1 °F 56.7 °F 29.9 in ESE 10.4 mph 10.4 mph 27 % 0 in
14:58 95.5 °F 57.2 °F 29.9 in East 11.5 mph 11.5 mph 28 % 0 in
15:03 95.4 °F 57 °F 29.9 in East 8.1 mph 8.1 mph 28 % 0 in
15:08 95.2 °F 56.8 °F 29.9 in ESE 8.1 mph 8.1 mph 28 % 0 in
15:13 95 °F 57.7 °F 29.9 in East 5.9 mph 5.9 mph 29 % 0 in
15:18 94.6 °F 59.4 °F 29.9 in NE 12.7 mph 12.7 mph 31 % 0 in
15:23 94.5 °F 59.2 °F 29.9 in ENE 8.1 mph 8.1 mph 31 % 0 in
15:28 93.7 °F 61.2 °F 29.9 in ENE 8.1 mph 8.1 mph 34 % 0 in
15:33 93.2 °F 63.1 °F 29.9 in ESE 10.4 mph 10.4 mph 37 % 0 in
15:38 93.2 °F 63.9 °F 29.9 in ESE 8.1 mph 8.1 mph 38 % 0 in
15:43 92.5 °F 63.9 °F 29.9 in ENE 10.4 mph 10.4 mph 39 % 0 in
15:48 91.4 °F 63.7 °F 29.9 in South 13.8 mph 13.8 mph 40 % 0 in
15:53 90.3 °F 64.8 °F 29.9 in ESE 11.5 mph 11.5 mph 43 % 0 in
15:58 90.3 °F 64.8 °F 29.9 in SE 11.5 mph 11.5 mph 43 % 0 in
16:03 89.4 °F 65.3 °F 29.9 in East 8.7 mph 8.7 mph 45 % 0 in
16:08 89.2 °F 65.1 °F 29.9 in ESE 12.7 mph 12.7 mph 45 % 0 in
16:13 88.2 °F 65.5 °F 29.9 in ENE 11.5 mph 11.5 mph 47 % 0 in
16:18 87.8 °F 65.7 °F 29.9 in East 12.7 mph 12.7 mph 48 % 0 in
16:23 87.6 °F 66 °F 29.9 in ESE 7.6 mph 7.6 mph 49 % 0 in
16:28 87.6 °F 66.7 °F 29.9 in ESE 6 mph 6 mph 50 % 0 in
16:33 87.3 °F 66.4 °F 29.9 in ESE 6.9 mph 8.1 mph 50 % 0 in
16:38 87.1 °F 66.2 °F 29.9 in East 12.7 mph 12.7 mph 50 % 0 in
16:43 86.5 °F 65.7 °F 29.9 in ESE 6 mph 6 mph 50 % 0 in
16:48 86.4 °F 65.5 °F 29.9 in East 9.2 mph 9.2 mph 50 % 0 in
16:53 86.2 °F 65.8 °F 29.9 in SE 5.8 mph 6.2 mph 51 % 0 in
16:58 86 °F 65.8 °F 29.9 in ENE 5.8 mph 5.9 mph 51 % 0 in
17:03 86.9 °F 66 °F 29.9 in East 7.6 mph 7.6 mph 50 % 0 in
17:08 86.9 °F 66 °F 29.9 in SE 12.5 mph 12.5 mph 50 % 0 in
17:13 86 °F 65.1 °F 29.8 in NE 18.4 mph 18.4 mph 50 % 0 in
17:18 85.5 °F 65.3 °F 29.8 in ENE 7.6 mph 7.6 mph 51 % 0 in
17:23 85.8 °F 65.7 °F 29.8 in North 5.8 mph 5.8 mph 51 % 0 in
17:28 85.3 °F 65.1 °F 29.9 in SE 10.4 mph 10.4 mph 51 % 0 in
17:33 85.8 °F 65.7 °F 29.9 in East 6 mph 6 mph 51 % 0 in
17:38 86 °F 65.8 °F 29.9 in ESE 9.2 mph 9.2 mph 51 % 0 in
17:43 85.8 °F 65.7 °F 29.9 in ENE 8.1 mph 8.1 mph 51 % 0 in
17:48 86 °F 65.8 °F 29.9 in SSE 8.1 mph 8.1 mph 51 % 0 in
17:53 86.2 °F 66.6 °F 29.9 in ESE 5.8 mph 5.8 mph 52 % 0 in
17:58 85.5 °F 65.8 °F 29.9 in NW 6.9 mph 6.9 mph 52 % 0 in
18:03 85.1 °F 66 °F 29.9 in WNW 3.5 mph 3.5 mph 53 % 0 in
18:08 85.3 °F 66.2 °F 29.9 in NE 3.5 mph 3.5 mph 53 % 0 in
18:13 85.8 °F 66.7 °F 29.9 in WSW 2.3 mph 2.3 mph 53 % 0 in
18:18 86.2 °F 66.9 °F 29.9 in SW 3.5 mph 3.5 mph 53 % 0 in
18:23 86.2 °F 66.9 °F 29.9 in SW 6.9 mph 6.9 mph 53 % 0 in
18:28 85.6 °F 66.6 °F 29.9 in WSW 3.5 mph 3.6 mph 53 % 0 in
18:33 84.7 °F 65.1 °F 29.9 in SSW 9.2 mph 9.2 mph 52 % 0 in
18:38 84.4 °F 64.8 °F 29.9 in SW 6.9 mph 6.9 mph 52 % 0 in
18:45 83.7 °F 64.2 °F 29.8 in SW 6.9 mph 6.9 mph 52 % 0 in
18:48 83.5 °F 64 °F 29.8 in South 6.9 mph 6.9 mph 52 % 0 in
18:53 82.9 °F 64 °F 29.8 in WSW 6 mph 6 mph 53 % 0 in
18:58 82.8 °F 63.9 °F 29.9 in WSW 4 mph 4 mph 53 % 0 in
19:03 82.6 °F 63.7 °F 29.9 in SW 4.6 mph 4.6 mph 53 % 0 in
19:08 82.4 °F 63.5 °F 29.9 in WSW 5.9 mph 5.9 mph 53 % 0 in
19:13 82 °F 63.9 °F 29.9 in SW 2.3 mph 2.6 mph 54 % 0 in
19:18 81.9 °F 63.7 °F 29.9 in West 3.5 mph 3.5 mph 54 % 0 in
19:23 81.7 °F 63.3 °F 29.9 in SSW 4.6 mph 4.6 mph 54 % 0 in
19:28 81.5 °F 63.9 °F 29.9 in West 5.8 mph 5.8 mph 55 % 0 in
19:33 81.3 °F 63.7 °F 29.9 in SSW 2.3 mph   55 % 0 in
19:38 81.3 °F 63.7 °F 29.9 in WSW 4.3 mph 4.3 mph 55 % 0 in
19:43 81.1 °F 63.3 °F 29.9 in SW 2.3 mph   55 % 0 in
19:48 81.1 °F 63.3 °F 29.9 in SW 4.6 mph 4.6 mph 55 % 0 in
19:53 81.1 °F 63.3 °F 29.9 in SW 2.3 mph   55 % 0 in
19:58 81.1 °F 64 °F 29.9 in SW 2.4 mph 2.4 mph 56 % 0 in
20:03 81.1 °F 64 °F 29.9 in WSW 2.3 mph 2.3 mph 56 % 0 in
20:08 81.1 °F 64 °F 29.9 in SW 2.4 mph 2.4 mph 56 % 0 in
20:13 81 °F 63.9 °F 29.9 in SW 2.3 mph 2.3 mph 56 % 0 in
20:18 80.8 °F 63.7 °F 29.9 in WSW 3.5 mph 3.5 mph 56 % 0 in
20:23 80.6 °F 64 °F 29.9 in SW 2.3 mph 2.3 mph 57 % 0 in
20:33 80.4 °F 64.8 °F 29.9 in West 2.3 mph   59 % 0 in
20:38 80.2 °F 64.6 °F 29.9 in SW 2.3 mph 2.3 mph 59 % 0 in
20:43 80.1 °F 64.4 °F 29.9 in SW 2.3 mph 2.3 mph 59 % 0 in
20:48 80.1 °F 64.4 °F 29.9 in SW 2.3 mph 2.3 mph 59 % 0 in
20:53 79.9 °F 64.2 °F 29.9 in Calm     59 % 0 in
20:58 79.9 °F 64.8 °F 29.9 in West 1.2 mph 1.2 mph 60 % 0 in
21:03 79.9 °F 64.8 °F 29.9 in NNE 2.3 mph 2.3 mph 60 % 0 in
21:08 79.7 °F 64.6 °F 29.9 in NNE 1.2 mph   60 % 0 in
21:13 79.7 °F 64.6 °F 29.8 in NNW 2.3 mph 2.3 mph 60 % 0 in
21:18 79.7 °F 64.6 °F 29.8 in WNW 1.2 mph 1.2 mph 60 % 0 in
21:23 79.7 °F 65.1 °F 29.8 in North 1.2 mph   61 % 0 in
21:28 79.7 °F 64.6 °F 29.9 in West 1.2 mph   60 % 0 in
21:33 79.5 °F 64.4 °F 29.9 in SW 2.3 mph 2.3 mph 60 % 0 in
21:38 79.5 °F 64.9 °F 29.9 in SW 1.2 mph 1.2 mph 61 % 0 in
21:43 79.3 °F 64.8 °F 29.9 in Calm     61 % 0 in
21:48 79.3 °F 64.8 °F 29.9 in SW 1.2 mph   61 % 0 in
21:53 79.2 °F 64.6 °F 29.9 in SW 2.3 mph 2.3 mph 61 % 0 in
21:58 79 °F 64.4 °F 29.9 in SW 1.2 mph 1.2 mph 61 % 0 in
22:03 79 °F 64.8 °F 29.9 in Calm     62 % 0 in
22:08 79 °F 64.8 °F 29.9 in Calm     62 % 0 in
22:13 79 °F 64.8 °F 29.9 in Calm     62 % 0 in
22:18 79 °F 64.8 °F 29.9 in NE 2.3 mph 2.3 mph 62 % 0 in
22:23 79 °F 64.8 °F 29.9 in Calm     62 % 0 in
22:28 79.2 °F 64.9 °F 29.8 in Calm     62 % 0 in
22:33 79.2 °F 64.9 °F 29.8 in East 1.2 mph   62 % 0 in
22:38 79.3 °F 65.1 °F 29.8 in ENE 1.2 mph   62 % 0 in
22:43 79 °F 64.8 °F 29.9 in SW 2.3 mph 2.3 mph 62 % 0 in
22:48 78.6 °F 64.6 °F 29.9 in SW 2.4 mph 2.4 mph 62 % 0 in
22:53 78.4 °F 64.8 °F 29.9 in SW 1.2 mph 1.2 mph 63 % 0 in
22:58 78.4 °F 64.8 °F 29.8 in SW 1.2 mph 1.2 mph 63 % 0 in
23:03 78.4 °F 64.8 °F 29.8 in SW 2.3 mph 2.3 mph 63 % 0 in
23:08 78.4 °F 64.8 °F 29.8 in SW 2.3 mph 2.3 mph 63 % 0 in
23:13 78.4 °F 64.8 °F 29.9 in SW 2.3 mph 2.3 mph 63 % 0 in
23:18 78.3 °F 65.1 °F 29.9 in SW 2.3 mph 2.3 mph 64 % 0 in
23:23 78.1 °F 64.9 °F 29.9 in WSW 2.3 mph 2.3 mph 64 % 0 in
23:28 78.1 °F 64.9 °F 29.9 in WSW 2.4 mph 2.4 mph 64 % 0 in
23:33 78.1 °F 64.9 °F 29.9 in WSW 1.6 mph 1.6 mph 64 % 0 in
23:38 78.1 °F 64.9 °F 29.9 in WSW 2.3 mph 2.3 mph 64 % 0 in
23:43 78.1 °F 64.9 °F 29.9 in SW 2.3 mph 2.3 mph 64 % 0 in
23:45 73.6 °F 65.5 °F 29.9 in SW 2 mph 3 mph 76 % 0 in
23:48 77.9 °F 64.8 °F 29.9 in SW 2.9 mph 2.9 mph 64 % 0 in
23:53 77.7 °F 64.6 °F 29.9 in WSW 3.5 mph 3.5 mph 64 % 0 in
23:55 73.8 °F 65.7 °F 29.9 in WSW 2 mph 4 mph 76 % 0 in
23:58 77.9 °F 64.8 °F 29.9 in SW 2.3 mph 2.3 mph 64 % 0 in
Meteo Sesrovires
Elogis d' Weather Underground - 3.5 mb

Guio original per  Jim McMurry - jmcmurry@mwt.net Adaptat per a la plantilla per  Wim van der Kuil - Leuven-Template.eu

Trobareu la nostra informacio del temps tambe a:

Weather Underground

AWEKAS